sensor_id;sensor_type;location;lat;lon;timestamp;pressure;altitude;pressure_sealevel;temperature
40624;BMP280;26325;48.594;11.650;2024-03-02T00:00:24;95629.34;;;7.29
40624;BMP280;26325;48.594;11.650;2024-03-02T00:02:56;95635.25;;;7.29
40624;BMP280;26325;48.594;11.650;2024-03-02T00:05:22;95630.13;;;7.29
40624;BMP280;26325;48.594;11.650;2024-03-02T00:07:57;95628.31;;;7.30
40624;BMP280;26325;48.594;11.650;2024-03-02T00:10:35;95633.69;;;7.28
40624;BMP280;26325;48.594;11.650;2024-03-02T00:13:12;95631.59;;;7.25
40624;BMP280;26325;48.594;11.650;2024-03-02T00:15:42;95635.13;;;7.20
40624;BMP280;26325;48.594;11.650;2024-03-02T00:18:11;95636.16;;;7.19
40624;BMP280;26325;48.594;11.650;2024-03-02T00:20:40;95618.94;;;7.19
40624;BMP280;26325;48.594;11.650;2024-03-02T00:23:10;95628.44;;;7.19
40624;BMP280;26325;48.594;11.650;2024-03-02T00:25:44;95626.13;;;7.17
40624;BMP280;26325;48.594;11.650;2024-03-02T00:28:33;95625.34;;;7.17
40624;BMP280;26325;48.594;11.650;2024-03-02T00:31:09;95608.88;;;7.13
40624;BMP280;26325;48.594;11.650;2024-03-02T00:33:46;95622.19;;;7.10
40624;BMP280;26325;48.594;11.650;2024-03-02T00:36:15;95607.31;;;7.12
40624;BMP280;26325;48.594;11.650;2024-03-02T00:38:51;95611.44;;;7.13
40624;BMP280;26325;48.594;11.650;2024-03-02T00:44:03;95613.59;;;7.00
40624;BMP280;26325;48.594;11.650;2024-03-02T00:46:37;95609.78;;;7.02
40624;BMP280;26325;48.594;11.650;2024-03-02T00:49:25;95613.25;;;6.91
40624;BMP280;26325;48.594;11.650;2024-03-02T00:51:55;95615.25;;;6.89
40624;BMP280;26325;48.594;11.650;2024-03-02T00:54:25;95616.91;;;6.95
40624;BMP280;26325;48.594;11.650;2024-03-02T00:56:54;95615.16;;;7.01
40624;BMP280;26325;48.594;11.650;2024-03-02T00:59:23;95614.38;;;7.00
40624;BMP280;26325;48.594;11.650;2024-03-02T01:01:49;95607.88;;;6.93
40624;BMP280;26325;48.594;11.650;2024-03-02T01:04:15;95613.78;;;6.93
40624;BMP280;26325;48.594;11.650;2024-03-02T01:06:43;95608.84;;;6.87
40624;BMP280;26325;48.594;11.650;2024-03-02T01:09:09;95597.31;;;6.89
40624;BMP280;26325;48.594;11.650;2024-03-02T01:11:39;95604.00;;;6.90
40624;BMP280;26325;48.594;11.650;2024-03-02T01:14:05;95609.19;;;6.95
40624;BMP280;26325;48.594;11.650;2024-03-02T01:16:31;95610.97;;;6.95
40624;BMP280;26325;48.594;11.650;2024-03-02T01:18:56;95612.56;;;6.80
40624;BMP280;26325;48.594;11.650;2024-03-02T01:21:22;95607.16;;;6.76
40624;BMP280;26325;48.594;11.650;2024-03-02T01:23:47;95616.41;;;6.77
40624;BMP280;26325;48.594;11.650;2024-03-02T01:26:13;95620.00;;;6.76
40624;BMP280;26325;48.594;11.650;2024-03-02T01:28:41;95615.56;;;6.72
40624;BMP280;26325;48.594;11.650;2024-03-02T01:31:06;95625.25;;;6.86
40624;BMP280;26325;48.594;11.650;2024-03-02T01:33:34;95624.47;;;6.85
40624;BMP280;26325;48.594;11.650;2024-03-02T01:36:02;95629.78;;;7.00
40624;BMP280;26325;48.594;11.650;2024-03-02T01:38:27;95621.72;;;6.92
40624;BMP280;26325;48.594;11.650;2024-03-02T01:40:57;95626.31;;;6.90
40624;BMP280;26325;48.594;11.650;2024-03-02T01:43:24;95628.22;;;6.99
40624;BMP280;26325;48.594;11.650;2024-03-02T01:45:53;95629.22;;;6.98
40624;BMP280;26325;48.594;11.650;2024-03-02T01:48:19;95631.31;;;7.01
40624;BMP280;26325;48.594;11.650;2024-03-02T01:50:44;95630.75;;;6.94
40624;BMP280;26325;48.594;11.650;2024-03-02T01:53:12;95633.00;;;6.91
40624;BMP280;26325;48.594;11.650;2024-03-02T01:55:38;95632.41;;;7.05
40624;BMP280;26325;48.594;11.650;2024-03-02T01:58:04;95626.97;;;7.02
40624;BMP280;26325;48.594;11.650;2024-03-02T02:00:29;95625.06;;;7.13
40624;BMP280;26325;48.594;11.650;2024-03-02T02:02:55;95619.63;;;7.10
40624;BMP280;26325;48.594;11.650;2024-03-02T02:05:23;95622.97;;;7.10
40624;BMP280;26325;48.594;11.650;2024-03-02T02:07:51;95610.66;;;7.12
40624;BMP280;26325;48.594;11.650;2024-03-02T02:10:19;95608.38;;;7.16
40624;BMP280;26325;48.594;11.650;2024-03-02T02:12:45;95607.13;;;7.18
40624;BMP280;26325;48.594;11.650;2024-03-02T02:15:24;95609.91;;;7.12
40624;BMP280;26325;48.594;11.650;2024-03-02T02:17:49;95607.38;;;7.17
40624;BMP280;26325;48.594;11.650;2024-03-02T02:20:15;95608.88;;;7.13
40624;BMP280;26325;48.594;11.650;2024-03-02T02:23:01;95607.78;;;7.09
40624;BMP280;26325;48.594;11.650;2024-03-02T02:25:28;95607.09;;;7.13
40624;BMP280;26325;48.594;11.650;2024-03-02T02:27:54;95613.03;;;7.19
40624;BMP280;26325;48.594;11.650;2024-03-02T02:30:29;95610.50;;;7.23
40624;BMP280;26325;48.594;11.650;2024-03-02T02:32:55;95604.91;;;7.26
40624;BMP280;26325;48.594;11.650;2024-03-02T02:35:21;95604.44;;;7.29
40624;BMP280;26325;48.594;11.650;2024-03-02T02:37:49;95596.50;;;7.31
40624;BMP280;26325;48.594;11.650;2024-03-02T02:40:16;95597.31;;;7.36
40624;BMP280;26325;48.594;11.650;2024-03-02T02:42:47;95587.03;;;7.36
40624;BMP280;26325;48.594;11.650;2024-03-02T02:47:43;95592.63;;;7.33
40624;BMP280;26325;48.594;11.650;2024-03-02T02:50:11;95592.63;;;7.33
40624;BMP280;26325;48.594;11.650;2024-03-02T02:52:41;95589.28;;;7.33
40624;BMP280;26325;48.594;11.650;2024-03-02T02:55:12;95585.72;;;7.34
40624;BMP280;26325;48.594;11.650;2024-03-02T02:57:41;95580.88;;;7.37
40624;BMP280;26325;48.594;11.650;2024-03-02T03:00:10;95584.47;;;7.36
40624;BMP280;26325;48.594;11.650;2024-03-02T03:02:41;95577.28;;;7.38
40624;BMP280;26325;48.594;11.650;2024-03-02T03:05:12;95577.09;;;7.44
40624;BMP280;26325;48.594;11.650;2024-03-02T03:07:42;95576.78;;;7.41
40624;BMP280;26325;48.594;11.650;2024-03-02T03:10:09;95579.31;;;7.36
40624;BMP280;26325;48.594;11.650;2024-03-02T03:12:38;95576.53;;;7.38
40624;BMP280;26325;48.594;11.650;2024-03-02T03:15:19;95579.56;;;7.35
40624;BMP280;26325;48.594;11.650;2024-03-02T03:17:45;95573.50;;;7.20
40624;BMP280;26325;48.594;11.650;2024-03-02T03:20:12;95590.16;;;7.17
40624;BMP280;26325;48.594;11.650;2024-03-02T03:22:38;95587.03;;;7.10
40624;BMP280;26325;48.594;11.650;2024-03-02T03:25:05;95591.81;;;7.02
40624;BMP280;26325;48.594;11.650;2024-03-02T03:27:30;95593.72;;;6.90
40624;BMP280;26325;48.594;11.650;2024-03-02T03:29:56;95592.94;;;6.90
40624;BMP280;26325;48.594;11.650;2024-03-02T03:32:22;95591.94;;;6.91
40624;BMP280;26325;48.594;11.650;2024-03-02T03:34:49;95592.59;;;6.82
40624;BMP280;26325;48.594;11.650;2024-03-02T03:37:24;95585.38;;;6.79
40624;BMP280;26325;48.594;11.650;2024-03-02T03:40:06;95592.53;;;6.77
40624;BMP280;26325;48.594;11.650;2024-03-02T03:42:40;95592.16;;;6.89
40624;BMP280;26325;48.594;11.650;2024-03-02T03:45:07;95591.38;;;6.89
40624;BMP280;26325;48.594;11.650;2024-03-02T03:47:36;95593.50;;;6.92
40624;BMP280;26325;48.594;11.650;2024-03-02T03:50:01;95592.66;;;6.86
40624;BMP280;26325;48.594;11.650;2024-03-02T03:52:29;95601.50;;;6.95
40624;BMP280;26325;48.594;11.650;2024-03-02T03:54:55;95591.69;;;6.92
40624;BMP280;26325;48.594;11.650;2024-03-02T03:57:21;95592.16;;;6.89
40624;BMP280;26325;48.594;11.650;2024-03-02T03:59:49;95601.00;;;6.98
40624;BMP280;26325;48.594;11.650;2024-03-02T04:02:15;95589.78;;;7.04
40624;BMP280;26325;48.594;11.650;2024-03-02T04:04:40;95608.25;;;7.06
40624;BMP280;26325;48.594;11.650;2024-03-02T04:07:06;95602.66;;;7.09
40624;BMP280;26325;48.594;11.650;2024-03-02T04:09:34;95605.31;;;7.14
40624;BMP280;26325;48.594;11.650;2024-03-02T04:12:02;95606.81;;;7.15
40624;BMP280;26325;48.594;11.650;2024-03-02T04:14:27;95610.16;;;7.15
40624;BMP280;26325;48.594;11.650;2024-03-02T04:16:55;95614.53;;;7.15
40624;BMP280;26325;48.594;11.650;2024-03-02T04:19:22;95614.53;;;7.15
40624;BMP280;26325;48.594;11.650;2024-03-02T04:21:47;95617.63;;;7.17
40624;BMP280;26325;48.594;11.650;2024-03-02T04:24:13;95629.16;;;7.14
40624;BMP280;26325;48.594;11.650;2024-03-02T04:26:38;95628.91;;;7.16
40624;BMP280;26325;48.594;11.650;2024-03-02T04:29:06;95633.59;;;7.19
40624;BMP280;26325;48.594;11.650;2024-03-02T04:31:32;95623.00;;;7.15
40624;BMP280;26325;48.594;11.650;2024-03-02T04:33:57;95631.00;;;7.19
40624;BMP280;26325;48.594;11.650;2024-03-02T04:36:23;95629.16;;;7.14
40624;BMP280;26325;48.594;11.650;2024-03-02T04:38:49;95635.56;;;7.12
40624;BMP280;26325;48.594;11.650;2024-03-02T04:41:14;95641.16;;;7.09
40624;BMP280;26325;48.594;11.650;2024-03-02T04:43:42;95641.16;;;7.09
40624;BMP280;26325;48.594;11.650;2024-03-02T04:46:10;95635.50;;;7.07
40624;BMP280;26325;48.594;11.650;2024-03-02T04:48:36;95641.72;;;7.11
40624;BMP280;26325;48.594;11.650;2024-03-02T04:51:01;95646.53;;;7.07
40624;BMP280;26325;48.594;11.650;2024-03-02T04:53:30;95645.75;;;7.07
40624;BMP280;26325;48.594;11.650;2024-03-02T04:55:57;95646.31;;;7.09
40624;BMP280;26325;48.594;11.650;2024-03-02T04:58:50;95651.97;;;7.11
40624;BMP280;26325;48.594;11.650;2024-03-02T05:01:15;95648.41;;;7.12
40624;BMP280;26325;48.594;11.650;2024-03-02T05:03:46;95647.84;;;7.10
40624;BMP280;26325;48.594;11.650;2024-03-02T05:06:12;95652.22;;;7.09
40624;BMP280;26325;48.594;11.650;2024-03-02T05:08:38;95647.03;;;7.04
40624;BMP280;26325;48.594;11.650;2024-03-02T05:11:11;95649.06;;;7.03
40624;BMP280;26325;48.594;11.650;2024-03-02T05:13:56;95654.75;;;7.04
40624;BMP280;26325;48.594;11.650;2024-03-02T05:16:22;95662.13;;;7.01
40624;BMP280;26325;48.594;11.650;2024-03-02T05:18:47;95656.94;;;6.96
40624;BMP280;26325;48.594;11.650;2024-03-02T05:21:15;95655.63;;;6.94
40624;BMP280;26325;48.594;11.650;2024-03-02T05:23:41;95662.59;;;6.98
40624;BMP280;26325;48.594;11.650;2024-03-02T05:26:10;95654.38;;;6.96
40624;BMP280;26325;48.594;11.650;2024-03-02T05:28:38;95651.81;;;6.96
40624;BMP280;26325;48.594;11.650;2024-03-02T05:31:11;95652.84;;;6.95
40624;BMP280;26325;48.594;11.650;2024-03-02T05:33:42;95656.63;;;6.93
40624;BMP280;26325;48.594;11.650;2024-03-02T05:36:10;95655.31;;;6.90
40624;BMP280;26325;48.594;11.650;2024-03-02T05:38:37;95658.44;;;6.92
40624;BMP280;26325;48.594;11.650;2024-03-02T05:41:05;95659.22;;;6.93
40624;BMP280;26325;48.594;11.650;2024-03-02T05:43:31;95661.47;;;6.89
40624;BMP280;26325;48.594;11.650;2024-03-02T05:45:58;95661.72;;;6.88
40624;BMP280;26325;48.594;11.650;2024-03-02T05:48:24;95658.38;;;6.87
40624;BMP280;26325;48.594;11.650;2024-03-02T05:50:49;95662.78;;;6.92
40624;BMP280;26325;48.594;11.650;2024-03-02T05:53:15;95662.78;;;6.92
40624;BMP280;26325;48.594;11.650;2024-03-02T05:55:41;95658.91;;;6.89
40624;BMP280;26325;48.594;11.650;2024-03-02T05:58:08;95660.44;;;6.90
40624;BMP280;26325;48.594;11.650;2024-03-02T06:00:57;95660.41;;;6.85
40624;BMP280;26325;48.594;11.650;2024-03-02T06:03:23;95647.56;;;6.85
40624;BMP280;26325;48.594;11.650;2024-03-02T06:05:48;95657.88;;;6.90
40624;BMP280;26325;48.594;11.650;2024-03-02T06:08:17;95654.84;;;6.93
40624;BMP280;26325;48.594;11.650;2024-03-02T06:10:43;95656.47;;;6.99
40624;BMP280;26325;48.594;11.650;2024-03-02T06:13:10;95653.41;;;7.02
40624;BMP280;26325;48.594;11.650;2024-03-02T06:15:38;95661.66;;;7.04
40624;BMP280;26325;48.594;11.650;2024-03-02T06:18:17;95660.13;;;7.03
40624;BMP280;26325;48.594;11.650;2024-03-02T06:20:42;95661.91;;;7.03
40624;BMP280;26325;48.594;11.650;2024-03-02T06:23:08;95662.19;;;7.06
40624;BMP280;26325;48.594;11.650;2024-03-02T06:25:33;95661.78;;;7.14
40624;BMP280;26325;48.594;11.650;2024-03-02T06:27:59;95665.41;;;7.18
40624;BMP280;26325;48.594;11.650;2024-03-02T06:30:25;95666.72;;;7.20
40624;BMP280;26325;48.594;11.650;2024-03-02T06:32:51;95666.97;;;7.19
40624;BMP280;26325;48.594;11.650;2024-03-02T06:35:19;95668.28;;;7.21
40624;BMP280;26325;48.594;11.650;2024-03-02T06:37:50;95669.53;;;7.19
40624;BMP280;26325;48.594;11.650;2024-03-02T06:40:18;95668.09;;;7.27
40624;BMP280;26325;48.594;11.650;2024-03-02T06:42:46;95669.22;;;7.36
40624;BMP280;26325;48.594;11.650;2024-03-02T06:45:14;95669.75;;;7.38
40624;BMP280;26325;48.594;11.650;2024-03-02T06:48:00;95663.19;;;7.47
40624;BMP280;26325;48.594;11.650;2024-03-02T06:50:26;95669.47;;;7.60
40624;BMP280;26325;48.594;11.650;2024-03-02T06:52:54;95669.09;;;7.73
40624;BMP280;26325;48.594;11.650;2024-03-02T06:55:21;95665.13;;;7.92
40624;BMP280;26325;48.594;11.650;2024-03-02T06:57:49;95669.28;;;8.23
40624;BMP280;26325;48.594;11.650;2024-03-02T07:00:20;95654.41;;;8.66
40624;BMP280;26325;48.594;11.650;2024-03-02T07:02:58;95659.59;;;9.35
40624;BMP280;26325;48.594;11.650;2024-03-02T07:05:24;95644.53;;;10.07
40624;BMP280;26325;48.594;11.650;2024-03-02T07:07:50;95648.34;;;10.73
40624;BMP280;26325;48.594;11.650;2024-03-02T07:10:15;95644.75;;;11.41
40624;BMP280;26325;48.594;11.650;2024-03-02T07:12:42;95641.47;;;12.43
40624;BMP280;26325;48.594;11.650;2024-03-02T07:15:08;95643.41;;;13.29
40624;BMP280;26325;48.594;11.650;2024-03-02T07:17:49;95638.09;;;13.98
40624;BMP280;26325;48.594;11.650;2024-03-02T07:20:14;95636.09;;;14.26
40624;BMP280;26325;48.594;11.650;2024-03-02T07:22:40;95643.38;;;13.93
40624;BMP280;26325;48.594;11.650;2024-03-02T07:25:08;95642.09;;;14.09
40624;BMP280;26325;48.594;11.650;2024-03-02T07:27:34;95655.72;;;13.19
40624;BMP280;26325;48.594;11.650;2024-03-02T07:30:03;95655.16;;;12.76
40624;BMP280;26325;48.594;11.650;2024-03-02T07:32:33;95657.63;;;12.58
40624;BMP280;26325;48.594;11.650;2024-03-02T07:35:02;95644.63;;;12.35
40624;BMP280;26325;48.594;11.650;2024-03-02T07:37:29;95654.47;;;12.66
40624;BMP280;26325;48.594;11.650;2024-03-02T07:39:57;95648.34;;;13.31
40624;BMP280;26325;48.594;11.650;2024-03-02T07:42:33;95651.66;;;13.54
40624;BMP280;26325;48.594;11.650;2024-03-02T07:45:01;95647.88;;;13.65
40624;BMP280;26325;48.594;11.650;2024-03-02T07:47:28;95654.50;;;13.75
40624;BMP280;26325;48.594;11.650;2024-03-02T07:49:54;95668.34;;;13.48
40624;BMP280;26325;48.594;11.650;2024-03-02T07:52:22;95663.78;;;13.40
40624;BMP280;26325;48.594;11.650;2024-03-02T07:54:48;95670.00;;;13.39
40624;BMP280;26325;48.594;11.650;2024-03-02T07:57:14;95671.34;;;13.14
40624;BMP280;26325;48.594;11.650;2024-03-02T07:59:40;95676.72;;;12.95
40624;BMP280;26325;48.594;11.650;2024-03-02T08:02:12;95676.91;;;13.03
40624;BMP280;26325;48.594;11.650;2024-03-02T08:04:38;95686.06;;;13.18
40624;BMP280;26325;48.594;11.650;2024-03-02T08:07:04;95689.81;;;13.71
40624;BMP280;26325;48.594;11.650;2024-03-02T08:09:30;95681.94;;;14.17
40624;BMP280;26325;48.594;11.650;2024-03-02T08:11:58;95672.50;;;14.21
40624;BMP280;26325;48.594;11.650;2024-03-02T08:14:24;95680.41;;;14.79
40624;BMP280;26325;48.594;11.650;2024-03-02T08:16:51;95676.56;;;14.89
40624;BMP280;26325;48.594;11.650;2024-03-02T08:19:19;95668.06;;;15.02
40624;BMP280;26325;48.594;11.650;2024-03-02T08:21:44;95675.38;;;15.00
40624;BMP280;26325;48.594;11.650;2024-03-02T08:24:10;95678.09;;;14.90
40624;BMP280;26325;48.594;11.650;2024-03-02T08:26:35;95681.72;;;14.94
40624;BMP280;26325;48.594;11.650;2024-03-02T08:29:04;95674.34;;;14.70
40624;BMP280;26325;48.594;11.650;2024-03-02T08:31:35;95683.63;;;14.58
40624;BMP280;26325;48.594;11.650;2024-03-02T08:34:05;95683.75;;;14.66
40624;BMP280;26325;48.594;11.650;2024-03-02T08:36:30;95693.00;;;14.41
40624;BMP280;26325;48.594;11.650;2024-03-02T08:38:56;95690.25;;;13.37
40624;BMP280;26325;48.594;11.650;2024-03-02T08:41:21;95698.47;;;12.71
40624;BMP280;26325;48.594;11.650;2024-03-02T08:43:49;95701.00;;;12.05
40624;BMP280;26325;48.594;11.650;2024-03-02T08:46:15;95699.13;;;12.16
40624;BMP280;26325;48.594;11.650;2024-03-02T08:48:42;95704.47;;;11.91
40624;BMP280;26325;48.594;11.650;2024-03-02T08:51:08;95708.19;;;11.76
40624;BMP280;26325;48.594;11.650;2024-03-02T08:53:36;95704.63;;;11.67
40624;BMP280;26325;48.594;11.650;2024-03-02T08:56:02;95698.00;;;11.89
40624;BMP280;26325;48.594;11.650;2024-03-02T08:58:27;95710.81;;;11.66
40624;BMP280;26325;48.594;11.650;2024-03-02T09:00:55;95704.47;;;11.44
40624;BMP280;26325;48.594;11.650;2024-03-02T09:03:21;95708.88;;;11.43
40624;BMP280;26325;48.594;11.650;2024-03-02T09:05:46;95711.56;;;12.18
40624;BMP280;26325;48.594;11.650;2024-03-02T09:08:12;95709.13;;;11.94
40624;BMP280;26325;48.594;11.650;2024-03-02T09:10:38;95714.19;;;10.80
40624;BMP280;26325;48.594;11.650;2024-03-02T09:13:05;95712.09;;;10.87
40624;BMP280;26325;48.594;11.650;2024-03-02T09:15:31;95709.19;;;11.18
40624;BMP280;26325;48.594;11.650;2024-03-02T09:17:58;95697.53;;;11.35
40624;BMP280;26325;48.594;11.650;2024-03-02T09:20:24;95702.81;;;11.67
40624;BMP280;26325;48.594;11.650;2024-03-02T09:22:49;95697.53;;;11.25
40624;BMP280;26325;48.594;11.650;2024-03-02T09:25:15;95703.19;;;11.42
40624;BMP280;26325;48.594;11.650;2024-03-02T09:27:41;95710.00;;;10.94
40624;BMP280;26325;48.594;11.650;2024-03-02T09:30:10;95703.69;;;11.39
40624;BMP280;26325;48.594;11.650;2024-03-02T09:32:37;95704.28;;;11.16
40624;BMP280;26325;48.594;11.650;2024-03-02T09:35:03;95699.56;;;11.38
40624;BMP280;26325;48.594;11.650;2024-03-02T09:37:31;95696.50;;;11.83
40624;BMP280;26325;48.594;11.650;2024-03-02T09:39:56;95697.41;;;11.54
40624;BMP280;26325;48.594;11.650;2024-03-02T09:42:25;95708.91;;;11.19
40624;BMP280;26325;48.594;11.650;2024-03-02T09:44:52;95709.72;;;11.15
40624;BMP280;26325;48.594;11.650;2024-03-02T09:47:17;95702.34;;;11.56
40624;BMP280;26325;48.594;11.650;2024-03-02T09:49:45;95701.56;;;11.55
40624;BMP280;26325;48.594;11.650;2024-03-02T09:52:12;95708.41;;;11.84
40624;BMP280;26325;48.594;11.650;2024-03-02T09:54:38;95702.06;;;11.57
40624;BMP280;26325;48.594;11.650;2024-03-02T09:57:04;95694.34;;;12.32
40624;BMP280;26325;48.594;11.650;2024-03-02T09:59:30;95700.78;;;12.02
40624;BMP280;26325;48.594;11.650;2024-03-02T10:04:30;95690.50;;;12.30
40624;BMP280;26325;48.594;11.650;2024-03-02T10:07:21;95688.81;;;12.76
40624;BMP280;26325;48.594;11.650;2024-03-02T10:09:48;95699.06;;;11.88
40624;BMP280;26325;48.594;11.650;2024-03-02T10:12:20;95698.63;;;12.14
40624;BMP280;26325;48.594;11.650;2024-03-02T10:14:46;95689.53;;;11.83
40624;BMP280;26325;48.594;11.650;2024-03-02T10:17:14;95687.44;;;11.85
40624;BMP280;26325;48.594;11.650;2024-03-02T10:19:41;95678.72;;;12.47
40624;BMP280;26325;48.594;11.650;2024-03-02T10:22:08;95676.63;;;13.50
40624;BMP280;26325;48.594;11.650;2024-03-02T10:24:43;95670.31;;;14.28
40624;BMP280;26325;48.594;11.650;2024-03-02T10:27:18;95680.31;;;13.44
40624;BMP280;26325;48.594;11.650;2024-03-02T10:29:48;95672.75;;;13.25
40624;BMP280;26325;48.594;11.650;2024-03-02T10:32:15;95677.88;;;13.52
40624;BMP280;26325;48.594;11.650;2024-03-02T10:34:42;95680.72;;;13.33
40624;BMP280;26325;48.594;11.650;2024-03-02T10:37:11;95668.41;;;13.84
40624;BMP280;26325;48.594;11.650;2024-03-02T10:39:42;95659.16;;;15.69
40624;BMP280;26325;48.594;11.650;2024-03-02T10:42:09;95650.13;;;15.01
40624;BMP280;26325;48.594;11.650;2024-03-02T10:47:23;95644.47;;;15.25
40624;BMP280;26325;48.594;11.650;2024-03-02T10:49:51;95661.53;;;13.93
40624;BMP280;26325;48.594;11.650;2024-03-02T10:52:17;95659.84;;;14.02
40624;BMP280;26325;48.594;11.650;2024-03-02T10:54:42;95645.25;;;14.68
40624;BMP280;26325;48.594;11.650;2024-03-02T10:57:11;95644.88;;;14.61
40624;BMP280;26325;48.594;11.650;2024-03-02T11:02:51;95648.28;;;14.44
40624;BMP280;26325;48.594;11.650;2024-03-02T11:05:31;95635.56;;;14.86
40624;BMP280;26325;48.594;11.650;2024-03-02T11:08:18;95640.59;;;14.03
40624;BMP280;26325;48.594;11.650;2024-03-02T11:11:06;95651.13;;;12.60
40624;BMP280;26325;48.594;11.650;2024-03-02T11:13:49;95638.56;;;12.21
40624;BMP280;26325;48.594;11.650;2024-03-02T11:16:33;95631.84;;;12.16
40624;BMP280;26325;48.594;11.650;2024-03-02T11:19:13;95632.41;;;12.40
40624;BMP280;26325;48.594;11.650;2024-03-02T11:21:40;95629.31;;;12.11
40624;BMP280;26325;48.594;11.650;2024-03-02T11:27:08;95629.50;;;12.75
40624;BMP280;26325;48.594;11.650;2024-03-02T11:29:44;95621.38;;;12.86
40624;BMP280;26325;48.594;11.650;2024-03-02T11:32:18;95613.66;;;13.04
40624;BMP280;26325;48.594;11.650;2024-03-02T11:34:48;95593.84;;;14.21
40624;BMP280;26325;48.594;11.650;2024-03-02T11:37:19;95592.34;;;14.77
40624;BMP280;26325;48.594;11.650;2024-03-02T11:39:50;95588.91;;;15.08
40624;BMP280;26325;48.594;11.650;2024-03-02T11:42:16;95586.19;;;15.39
40624;BMP280;26325;48.594;11.650;2024-03-02T11:44:48;95577.00;;;15.76
40624;BMP280;26325;48.594;11.650;2024-03-02T11:47:34;95573.50;;;16.37
40624;BMP280;26325;48.594;11.650;2024-03-02T11:50:00;95567.19;;;16.59
40624;BMP280;26325;48.594;11.650;2024-03-02T11:52:26;95565.25;;;16.73
40624;BMP280;26325;48.594;11.650;2024-03-02T11:54:53;95557.00;;;17.09
40624;BMP280;26325;48.594;11.650;2024-03-02T11:57:24;95547.41;;;17.75
40624;BMP280;26325;48.594;11.650;2024-03-02T11:59:50;95543.53;;;17.40
40624;BMP280;26325;48.594;11.650;2024-03-02T12:02:22;95537.63;;;18.59
40624;BMP280;26325;48.594;11.650;2024-03-02T12:04:49;95524.03;;;19.38
40624;BMP280;26325;48.594;11.650;2024-03-02T12:07:22;95523.91;;;19.55
40624;BMP280;26325;48.594;11.650;2024-03-02T12:14:59;95517.47;;;20.44
40624;BMP280;26325;48.594;11.650;2024-03-02T12:17:26;95525.88;;;19.66
40624;BMP280;26325;48.594;11.650;2024-03-02T12:19:51;95516.16;;;20.38
40624;BMP280;26325;48.594;11.650;2024-03-02T12:22:18;95519.00;;;20.45
40624;BMP280;26325;48.594;11.650;2024-03-02T12:24:47;95508.41;;;20.22
40624;BMP280;26325;48.594;11.650;2024-03-02T12:27:16;95515.97;;;20.55
40624;BMP280;26325;48.594;11.650;2024-03-02T12:29:44;95513.81;;;19.25
40624;BMP280;26325;48.594;11.650;2024-03-02T12:32:10;95513.63;;;18.73
40624;BMP280;26325;48.594;11.650;2024-03-02T12:34:38;95525.75;;;17.42
40624;BMP280;26325;48.594;11.650;2024-03-02T12:37:04;95520.94;;;16.73
40624;BMP280;26325;48.594;11.650;2024-03-02T12:39:30;95513.09;;;16.64
40624;BMP280;26325;48.594;11.650;2024-03-02T12:41:58;95508.81;;;15.87
40624;BMP280;26325;48.594;11.650;2024-03-02T12:44:23;95510.31;;;16.61
40624;BMP280;26325;48.594;11.650;2024-03-02T12:46:50;95503.16;;;16.75
40624;BMP280;26325;48.594;11.650;2024-03-02T12:49:29;95492.44;;;18.05
40624;BMP280;26325;48.594;11.650;2024-03-02T12:52:02;95478.13;;;19.41
40624;BMP280;26325;48.594;11.650;2024-03-02T12:54:28;95474.16;;;19.55
40624;BMP280;26325;48.594;11.650;2024-03-02T12:57:02;95474.50;;;19.93
40624;BMP280;26325;48.594;11.650;2024-03-02T12:59:33;95481.59;;;20.04
40624;BMP280;26325;48.594;11.650;2024-03-02T13:01:59;95486.81;;;19.53
40624;BMP280;26325;48.594;11.650;2024-03-02T13:04:28;95466.97;;;19.72
40624;BMP280;26325;48.594;11.650;2024-03-02T13:06:58;95474.44;;;20.57
40624;BMP280;26325;48.594;11.650;2024-03-02T13:09:25;95476.94;;;20.10
40624;BMP280;26325;48.594;11.650;2024-03-02T13:11:55;95462.19;;;19.74
40624;BMP280;26325;48.594;11.650;2024-03-02T13:14:23;95450.19;;;20.83
40624;BMP280;26325;48.594;11.650;2024-03-02T13:16:52;95445.63;;;20.80
40624;BMP280;26325;48.594;11.650;2024-03-02T13:19:18;95440.22;;;21.62
40624;BMP280;26325;48.594;11.650;2024-03-02T13:21:49;95449.97;;;20.99
40624;BMP280;26325;48.594;11.650;2024-03-02T13:24:16;95444.19;;;20.16
40624;BMP280;26325;48.594;11.650;2024-03-02T13:26:45;95435.22;;;19.73
40624;BMP280;26325;48.594;11.650;2024-03-02T13:29:11;95444.03;;;19.29
40624;BMP280;26325;48.594;11.650;2024-03-02T13:31:39;95441.50;;;19.41
40624;BMP280;26325;48.594;11.650;2024-03-02T13:34:05;95429.50;;;19.40
40624;BMP280;26325;48.594;11.650;2024-03-02T13:36:30;95438.72;;;17.54
40624;BMP280;26325;48.594;11.650;2024-03-02T13:39:00;95423.16;;;17.74
40624;BMP280;26325;48.594;11.650;2024-03-02T13:41:25;95434.66;;;16.82
40624;BMP280;26325;48.594;11.650;2024-03-02T13:43:54;95424.88;;;16.41
40624;BMP280;26325;48.594;11.650;2024-03-02T13:46:19;95425.00;;;16.91
40624;BMP280;26325;48.594;11.650;2024-03-02T13:48:46;95408.25;;;16.76
40624;BMP280;26325;48.594;11.650;2024-03-02T13:51:14;95410.94;;;17.25
40624;BMP280;26325;48.594;11.650;2024-03-02T13:53:40;95420.78;;;15.89
40624;BMP280;26325;48.594;11.650;2024-03-02T13:56:06;95421.13;;;16.26
40624;BMP280;26325;48.594;11.650;2024-03-02T13:58:32;95405.16;;;17.98
40624;BMP280;26325;48.594;11.650;2024-03-02T14:00:58;95399.63;;;18.44
40624;BMP280;26325;48.594;11.650;2024-03-02T14:03:23;95398.47;;;19.10
40624;BMP280;26325;48.594;11.650;2024-03-02T14:05:49;95407.09;;;18.17
40624;BMP280;26325;48.594;11.650;2024-03-02T14:08:15;95405.34;;;18.74
40624;BMP280;26325;48.594;11.650;2024-03-02T14:11:05;95397.72;;;19.09
40624;BMP280;26325;48.594;11.650;2024-03-02T14:13:43;95392.06;;;18.79
40624;BMP280;26325;48.594;11.650;2024-03-02T14:16:21;95397.44;;;19.03
40624;BMP280;26325;48.594;11.650;2024-03-02T14:19:03;95391.22;;;18.59
40624;BMP280;26325;48.594;11.650;2024-03-02T14:21:30;95392.97;;;19.23
40624;BMP280;26325;48.594;11.650;2024-03-02T14:23:56;95390.56;;;18.98
40624;BMP280;26325;48.594;11.650;2024-03-02T14:26:24;95400.47;;;17.67
40624;BMP280;26325;48.594;11.650;2024-03-02T14:28:54;95401.25;;;17.51
40624;BMP280;26325;48.594;11.650;2024-03-02T14:31:22;95395.13;;;17.05